sensor_id;sensor_type;location;lat;lon;timestamp;pressure;altitude;pressure_sealevel;temperature
12854;BMP180;6495;51.808;7.478;2024-03-02T00:01:54;99602.00;;;7.20
12854;BMP180;6495;51.808;7.478;2024-03-02T00:04:24;99599.00;;;7.20
12854;BMP180;6495;51.808;7.478;2024-03-02T00:06:54;99605.00;;;7.30
12854;BMP180;6495;51.808;7.478;2024-03-02T00:09:22;99602.00;;;7.20
12854;BMP180;6495;51.808;7.478;2024-03-02T00:11:52;99608.00;;;7.30
12854;BMP180;6495;51.808;7.478;2024-03-02T00:14:21;99598.00;;;7.30
12854;BMP180;6495;51.808;7.478;2024-03-02T00:16:51;99604.00;;;7.20
12854;BMP180;6495;51.808;7.478;2024-03-02T00:19:20;99599.00;;;7.30
12854;BMP180;6495;51.808;7.478;2024-03-02T00:21:50;99605.00;;;7.30
12854;BMP180;6495;51.808;7.478;2024-03-02T00:24:21;99602.00;;;7.30
12854;BMP180;6495;51.808;7.478;2024-03-02T00:26:54;99597.00;;;7.30
12854;BMP180;6495;51.808;7.478;2024-03-02T00:29:23;99600.00;;;7.30
12854;BMP180;6495;51.808;7.478;2024-03-02T00:31:51;99607.00;;;7.30
12854;BMP180;6495;51.808;7.478;2024-03-02T00:34:21;99609.00;;;7.30
12854;BMP180;6495;51.808;7.478;2024-03-02T00:36:51;99600.00;;;7.30
12854;BMP180;6495;51.808;7.478;2024-03-02T00:39:25;99594.00;;;7.30
12854;BMP180;6495;51.808;7.478;2024-03-02T00:41:53;99595.00;;;7.30
12854;BMP180;6495;51.808;7.478;2024-03-02T00:44:25;99590.00;;;7.30
12854;BMP180;6495;51.808;7.478;2024-03-02T00:46:58;99590.00;;;7.30
12854;BMP180;6495;51.808;7.478;2024-03-02T00:49:28;99582.00;;;7.30
12854;BMP180;6495;51.808;7.478;2024-03-02T00:51:58;99582.00;;;7.30
12854;BMP180;6495;51.808;7.478;2024-03-02T00:54:27;99573.00;;;7.30
12854;BMP180;6495;51.808;7.478;2024-03-02T00:56:59;99583.00;;;7.30
12854;BMP180;6495;51.808;7.478;2024-03-02T00:59:28;99576.00;;;7.30
12854;BMP180;6495;51.808;7.478;2024-03-02T01:01:57;99587.00;;;7.30
12854;BMP180;6495;51.808;7.478;2024-03-02T01:04:25;99586.00;;;7.30
12854;BMP180;6495;51.808;7.478;2024-03-02T01:06:53;99582.00;;;7.30
12854;BMP180;6495;51.808;7.478;2024-03-02T01:09:23;99578.00;;;7.30
12854;BMP180;6495;51.808;7.478;2024-03-02T01:11:52;99575.00;;;7.30
12854;BMP180;6495;51.808;7.478;2024-03-02T01:14:20;99573.00;;;7.30
12854;BMP180;6495;51.808;7.478;2024-03-02T01:16:49;99580.00;;;7.30
12854;BMP180;6495;51.808;7.478;2024-03-02T01:19:17;99575.00;;;7.30
12854;BMP180;6495;51.808;7.478;2024-03-02T01:21:46;99564.00;;;7.40
12854;BMP180;6495;51.808;7.478;2024-03-02T01:24:14;99562.00;;;7.40
12854;BMP180;6495;51.808;7.478;2024-03-02T01:26:45;99572.00;;;7.40
12854;BMP180;6495;51.808;7.478;2024-03-02T01:29:13;99568.00;;;7.40
12854;BMP180;6495;51.808;7.478;2024-03-02T01:31:42;99560.00;;;7.40
12854;BMP180;6495;51.808;7.478;2024-03-02T01:34:10;99564.00;;;7.40
12854;BMP180;6495;51.808;7.478;2024-03-02T01:36:40;99554.00;;;7.40
12854;BMP180;6495;51.808;7.478;2024-03-02T01:39:08;99553.00;;;7.40
12854;BMP180;6495;51.808;7.478;2024-03-02T01:41:39;99544.00;;;7.40
12854;BMP180;6495;51.808;7.478;2024-03-02T01:44:09;99543.00;;;7.40
12854;BMP180;6495;51.808;7.478;2024-03-02T01:46:37;99545.00;;;7.40
12854;BMP180;6495;51.808;7.478;2024-03-02T01:49:08;99547.00;;;7.40
12854;BMP180;6495;51.808;7.478;2024-03-02T01:51:37;99554.00;;;7.40
12854;BMP180;6495;51.808;7.478;2024-03-02T01:54:06;99540.00;;;7.40
12854;BMP180;6495;51.808;7.478;2024-03-02T01:56:35;99549.00;;;7.40
12854;BMP180;6495;51.808;7.478;2024-03-02T01:59:03;99560.00;;;7.30
12854;BMP180;6495;51.808;7.478;2024-03-02T02:01:33;99550.00;;;7.30
12854;BMP180;6495;51.808;7.478;2024-03-02T02:04:02;99551.00;;;7.30
12854;BMP180;6495;51.808;7.478;2024-03-02T02:06:31;99541.00;;;7.30
12854;BMP180;6495;51.808;7.478;2024-03-02T02:09:00;99543.00;;;7.30
12854;BMP180;6495;51.808;7.478;2024-03-02T02:11:28;99543.00;;;7.30
12854;BMP180;6495;51.808;7.478;2024-03-02T02:13:57;99551.00;;;7.30
12854;BMP180;6495;51.808;7.478;2024-03-02T02:16:26;99548.00;;;7.30
12854;BMP180;6495;51.808;7.478;2024-03-02T02:18:59;99535.00;;;7.40
12854;BMP180;6495;51.808;7.478;2024-03-02T02:21:30;99543.00;;;7.40
12854;BMP180;6495;51.808;7.478;2024-03-02T02:23:58;99535.00;;;7.40
12854;BMP180;6495;51.808;7.478;2024-03-02T02:26:28;99531.00;;;7.40
12854;BMP180;6495;51.808;7.478;2024-03-02T02:28:56;99530.00;;;7.30
12854;BMP180;6495;51.808;7.478;2024-03-02T02:31:25;99531.00;;;7.30
12854;BMP180;6495;51.808;7.478;2024-03-02T02:33:53;99533.00;;;7.30
12854;BMP180;6495;51.808;7.478;2024-03-02T02:36:22;99529.00;;;7.30
12854;BMP180;6495;51.808;7.478;2024-03-02T02:38:52;99523.00;;;7.30
12854;BMP180;6495;51.808;7.478;2024-03-02T02:41:20;99535.00;;;7.30
12854;BMP180;6495;51.808;7.478;2024-03-02T02:43:49;99521.00;;;7.30
12854;BMP180;6495;51.808;7.478;2024-03-02T02:46:18;99521.00;;;7.30
12854;BMP180;6495;51.808;7.478;2024-03-02T02:48:46;99518.00;;;7.30
12854;BMP180;6495;51.808;7.478;2024-03-02T02:51:16;99509.00;;;7.30
12854;BMP180;6495;51.808;7.478;2024-03-02T02:53:45;99519.00;;;7.30
12854;BMP180;6495;51.808;7.478;2024-03-02T02:56:14;99522.00;;;7.30
12854;BMP180;6495;51.808;7.478;2024-03-02T02:58:43;99519.00;;;7.30
12854;BMP180;6495;51.808;7.478;2024-03-02T03:01:11;99513.00;;;7.30
12854;BMP180;6495;51.808;7.478;2024-03-02T03:03:40;99511.00;;;7.30
12854;BMP180;6495;51.808;7.478;2024-03-02T03:06:09;99514.00;;;7.30
12854;BMP180;6495;51.808;7.478;2024-03-02T03:08:37;99517.00;;;7.40
12854;BMP180;6495;51.808;7.478;2024-03-02T03:11:06;99517.00;;;7.40
12854;BMP180;6495;51.808;7.478;2024-03-02T03:13:36;99524.00;;;7.40
12854;BMP180;6495;51.808;7.478;2024-03-02T03:16:05;99518.00;;;7.40
12854;BMP180;6495;51.808;7.478;2024-03-02T03:18:34;99530.00;;;7.40
12854;BMP180;6495;51.808;7.478;2024-03-02T03:21:03;99534.00;;;7.40
12854;BMP180;6495;51.808;7.478;2024-03-02T03:23:31;99532.00;;;7.50
12854;BMP180;6495;51.808;7.478;2024-03-02T03:26:00;99535.00;;;7.50
12854;BMP180;6495;51.808;7.478;2024-03-02T03:28:29;99542.00;;;7.50
12854;BMP180;6495;51.808;7.478;2024-03-02T03:31:02;99535.00;;;7.50
12854;BMP180;6495;51.808;7.478;2024-03-02T03:33:31;99531.00;;;7.50
12854;BMP180;6495;51.808;7.478;2024-03-02T03:36:00;99532.00;;;7.50
12854;BMP180;6495;51.808;7.478;2024-03-02T03:38:30;99520.00;;;7.50
12854;BMP180;6495;51.808;7.478;2024-03-02T03:40:59;99529.00;;;7.40
12854;BMP180;6495;51.808;7.478;2024-03-02T03:43:27;99524.00;;;7.40
12854;BMP180;6495;51.808;7.478;2024-03-02T03:45:56;99517.00;;;7.40
12854;BMP180;6495;51.808;7.478;2024-03-02T03:48:26;99526.00;;;7.40
12854;BMP180;6495;51.808;7.478;2024-03-02T03:50:57;99519.00;;;7.40
12854;BMP180;6495;51.808;7.478;2024-03-02T03:53:26;99513.00;;;7.40
12854;BMP180;6495;51.808;7.478;2024-03-02T03:55:54;99527.00;;;7.40
12854;BMP180;6495;51.808;7.478;2024-03-02T03:58:23;99525.00;;;7.40
12854;BMP180;6495;51.808;7.478;2024-03-02T04:00:51;99530.00;;;7.40
12854;BMP180;6495;51.808;7.478;2024-03-02T04:03:20;99529.00;;;7.50
12854;BMP180;6495;51.808;7.478;2024-03-02T04:05:50;99530.00;;;7.50
12854;BMP180;6495;51.808;7.478;2024-03-02T04:08:18;99539.00;;;7.50
12854;BMP180;6495;51.808;7.478;2024-03-02T04:10:47;99538.00;;;7.50
12854;BMP180;6495;51.808;7.478;2024-03-02T04:13:15;99537.00;;;7.60
12854;BMP180;6495;51.808;7.478;2024-03-02T04:15:44;99545.00;;;7.60
12854;BMP180;6495;51.808;7.478;2024-03-02T04:18:12;99544.00;;;7.60
12854;BMP180;6495;51.808;7.478;2024-03-02T04:20:41;99549.00;;;7.70
12854;BMP180;6495;51.808;7.478;2024-03-02T04:23:11;99544.00;;;7.70
12854;BMP180;6495;51.808;7.478;2024-03-02T04:25:39;99543.00;;;7.70
12854;BMP180;6495;51.808;7.478;2024-03-02T04:28:08;99539.00;;;7.70
12854;BMP180;6495;51.808;7.478;2024-03-02T04:30:36;99525.00;;;7.70
12854;BMP180;6495;51.808;7.478;2024-03-02T04:33:06;99541.00;;;7.70
12854;BMP180;6495;51.808;7.478;2024-03-02T04:35:37;99538.00;;;7.70
12854;BMP180;6495;51.808;7.478;2024-03-02T04:38:05;99542.00;;;7.70
12854;BMP180;6495;51.808;7.478;2024-03-02T04:40:35;99541.00;;;7.70
12854;BMP180;6495;51.808;7.478;2024-03-02T04:43:04;99540.00;;;7.70
12854;BMP180;6495;51.808;7.478;2024-03-02T04:45:32;99543.00;;;7.70
12854;BMP180;6495;51.808;7.478;2024-03-02T04:48:01;99544.00;;;7.70
12854;BMP180;6495;51.808;7.478;2024-03-02T04:50:29;99551.00;;;7.70
12854;BMP180;6495;51.808;7.478;2024-03-02T04:52:57;99561.00;;;7.70
12854;BMP180;6495;51.808;7.478;2024-03-02T04:55:26;99564.00;;;7.70
12854;BMP180;6495;51.808;7.478;2024-03-02T04:58:20;99560.00;;;7.70
12854;BMP180;6495;51.808;7.478;2024-03-02T05:00:49;99562.00;;;7.70
12854;BMP180;6495;51.808;7.478;2024-03-02T05:03:24;99568.00;;;7.70
12854;BMP180;6495;51.808;7.478;2024-03-02T05:05:53;99565.00;;;7.60
12854;BMP180;6495;51.808;7.478;2024-03-02T05:08:21;99556.00;;;7.60
12854;BMP180;6495;51.808;7.478;2024-03-02T05:10:50;99571.00;;;7.60
12854;BMP180;6495;51.808;7.478;2024-03-02T05:13:20;99572.00;;;7.60
12854;BMP180;6495;51.808;7.478;2024-03-02T05:15:49;99562.00;;;7.60
12854;BMP180;6495;51.808;7.478;2024-03-02T05:18:17;99575.00;;;7.60
12854;BMP180;6495;51.808;7.478;2024-03-02T05:20:46;99555.00;;;7.60
12854;BMP180;6495;51.808;7.478;2024-03-02T05:23:14;99564.00;;;7.50
12854;BMP180;6495;51.808;7.478;2024-03-02T05:25:43;99565.00;;;7.50
12854;BMP180;6495;51.808;7.478;2024-03-02T05:28:12;99568.00;;;7.50
12854;BMP180;6495;51.808;7.478;2024-03-02T05:30:44;99565.00;;;7.50
12854;BMP180;6495;51.808;7.478;2024-03-02T05:33:13;99577.00;;;7.40
12854;BMP180;6495;51.808;7.478;2024-03-02T05:35:43;99575.00;;;7.40
12854;BMP180;6495;51.808;7.478;2024-03-02T05:38:12;99577.00;;;7.40
12854;BMP180;6495;51.808;7.478;2024-03-02T05:40:40;99573.00;;;7.40
12854;BMP180;6495;51.808;7.478;2024-03-02T05:43:09;99580.00;;;7.40
12854;BMP180;6495;51.808;7.478;2024-03-02T05:45:37;99576.00;;;7.40
12854;BMP180;6495;51.808;7.478;2024-03-02T05:48:08;99563.00;;;7.40
12854;BMP180;6495;51.808;7.478;2024-03-02T05:50:38;99569.00;;;7.40
12854;BMP180;6495;51.808;7.478;2024-03-02T05:53:06;99571.00;;;7.40
12854;BMP180;6495;51.808;7.478;2024-03-02T05:55:35;99565.00;;;7.30
12854;BMP180;6495;51.808;7.478;2024-03-02T05:58:04;99571.00;;;7.30
12854;BMP180;6495;51.808;7.478;2024-03-02T06:00:49;99585.00;;;7.30
12854;BMP180;6495;51.808;7.478;2024-03-02T06:03:19;99590.00;;;7.20
12854;BMP180;6495;51.808;7.478;2024-03-02T06:05:48;99595.00;;;7.20
12854;BMP180;6495;51.808;7.478;2024-03-02T06:08:17;99594.00;;;7.20
12854;BMP180;6495;51.808;7.478;2024-03-02T06:10:45;99583.00;;;7.20
12854;BMP180;6495;51.808;7.478;2024-03-02T06:13:14;99595.00;;;7.10
12854;BMP180;6495;51.808;7.478;2024-03-02T06:15:43;99597.00;;;7.10
12854;BMP180;6495;51.808;7.478;2024-03-02T06:18:12;99595.00;;;7.10
12854;BMP180;6495;51.808;7.478;2024-03-02T06:20:41;99595.00;;;7.10
12854;BMP180;6495;51.808;7.478;2024-03-02T06:23:10;99595.00;;;7.10
12854;BMP180;6495;51.808;7.478;2024-03-02T06:25:38;99606.00;;;7.10
12854;BMP180;6495;51.808;7.478;2024-03-02T06:28:07;99607.00;;;7.00
12854;BMP180;6495;51.808;7.478;2024-03-02T06:30:35;99603.00;;;7.00
12854;BMP180;6495;51.808;7.478;2024-03-02T06:33:04;99602.00;;;7.10
12854;BMP180;6495;51.808;7.478;2024-03-02T06:35:34;99593.00;;;7.00
12854;BMP180;6495;51.808;7.478;2024-03-02T06:38:04;99600.00;;;7.00
12854;BMP180;6495;51.808;7.478;2024-03-02T06:40:32;99609.00;;;7.00
12854;BMP180;6495;51.808;7.478;2024-03-02T06:43:01;99615.00;;;7.10
12854;BMP180;6495;51.808;7.478;2024-03-02T06:45:29;99608.00;;;7.10
12854;BMP180;6495;51.808;7.478;2024-03-02T06:47:58;99609.00;;;7.10
12854;BMP180;6495;51.808;7.478;2024-03-02T06:50:26;99603.00;;;7.10
12854;BMP180;6495;51.808;7.478;2024-03-02T06:52:55;99612.00;;;7.10
12854;BMP180;6495;51.808;7.478;2024-03-02T06:55:25;99620.00;;;7.10
12854;BMP180;6495;51.808;7.478;2024-03-02T06:57:54;99616.00;;;7.10
12854;BMP180;6495;51.808;7.478;2024-03-02T07:00:22;99626.00;;;7.10
12854;BMP180;6495;51.808;7.478;2024-03-02T07:02:51;99631.00;;;7.20
12854;BMP180;6495;51.808;7.478;2024-03-02T07:05:19;99644.00;;;7.20
12854;BMP180;6495;51.808;7.478;2024-03-02T07:07:48;99634.00;;;7.30
12854;BMP180;6495;51.808;7.478;2024-03-02T07:10:16;99633.00;;;7.30
12854;BMP180;6495;51.808;7.478;2024-03-02T07:12:46;99632.00;;;7.30
12854;BMP180;6495;51.808;7.478;2024-03-02T07:15:15;99629.00;;;7.40
12854;BMP180;6495;51.808;7.478;2024-03-02T07:18:17;99635.00;;;7.40
12854;BMP180;6495;51.808;7.478;2024-03-02T07:20:48;99652.00;;;7.50
12854;BMP180;6495;51.808;7.478;2024-03-02T07:23:17;99646.00;;;7.50
12854;BMP180;6495;51.808;7.478;2024-03-02T07:25:46;99636.00;;;7.60
12854;BMP180;6495;51.808;7.478;2024-03-02T07:28:19;99649.00;;;7.60
12854;BMP180;6495;51.808;7.478;2024-03-02T07:30:50;99654.00;;;7.60
12854;BMP180;6495;51.808;7.478;2024-03-02T07:33:26;99652.00;;;7.70
12854;BMP180;6495;51.808;7.478;2024-03-02T07:35:55;99662.00;;;7.80
12854;BMP180;6495;51.808;7.478;2024-03-02T07:38:23;99663.00;;;7.80
12854;BMP180;6495;51.808;7.478;2024-03-02T07:40:55;99666.00;;;7.90
12854;BMP180;6495;51.808;7.478;2024-03-02T07:43:25;99671.00;;;8.00
12854;BMP180;6495;51.808;7.478;2024-03-02T07:45:53;99674.00;;;8.10
12854;BMP180;6495;51.808;7.478;2024-03-02T07:48:23;99679.00;;;8.10
12854;BMP180;6495;51.808;7.478;2024-03-02T07:50:52;99679.00;;;8.20
12854;BMP180;6495;51.808;7.478;2024-03-02T07:53:21;99676.00;;;8.20
12854;BMP180;6495;51.808;7.478;2024-03-02T07:55:50;99686.00;;;8.30
12854;BMP180;6495;51.808;7.478;2024-03-02T07:58:18;99678.00;;;8.30
12854;BMP180;6495;51.808;7.478;2024-03-02T08:01:03;99674.00;;;8.40
12854;BMP180;6495;51.808;7.478;2024-03-02T08:03:50;99684.00;;;8.50
12854;BMP180;6495;51.808;7.478;2024-03-02T08:06:20;99677.00;;;8.50
12854;BMP180;6495;51.808;7.478;2024-03-02T08:12:07;99694.00;;;8.70
12854;BMP180;6495;51.808;7.478;2024-03-02T08:15:08;99673.00;;;8.90
12854;BMP180;6495;51.808;7.478;2024-03-02T08:18:55;99683.00;;;9.10
12854;BMP180;6495;51.808;7.478;2024-03-02T08:25:48;99700.00;;;9.30
12854;BMP180;6495;51.808;7.478;2024-03-02T08:28:17;99693.00;;;9.40
12854;BMP180;6495;51.808;7.478;2024-03-02T08:30:45;99702.00;;;9.50
12854;BMP180;6495;51.808;7.478;2024-03-02T08:33:13;99703.00;;;9.60
12854;BMP180;6495;51.808;7.478;2024-03-02T08:35:43;99702.00;;;9.80
12854;BMP180;6495;51.808;7.478;2024-03-02T08:38:12;99716.00;;;9.90
12854;BMP180;6495;51.808;7.478;2024-03-02T08:40:41;99711.00;;;10.00
12854;BMP180;6495;51.808;7.478;2024-03-02T08:43:09;99714.00;;;10.10
12854;BMP180;6495;51.808;7.478;2024-03-02T08:45:38;99710.00;;;10.20
12854;BMP180;6495;51.808;7.478;2024-03-02T08:48:08;99713.00;;;10.30
12854;BMP180;6495;51.808;7.478;2024-03-02T08:50:36;99718.00;;;10.30
12854;BMP180;6495;51.808;7.478;2024-03-02T08:53:06;99720.00;;;10.50
12854;BMP180;6495;51.808;7.478;2024-03-02T08:55:34;99723.00;;;10.60
12854;BMP180;6495;51.808;7.478;2024-03-02T08:58:03;99728.00;;;10.80
12854;BMP180;6495;51.808;7.478;2024-03-02T09:00:32;99736.00;;;10.90
12854;BMP180;6495;51.808;7.478;2024-03-02T09:03:00;99738.00;;;10.90
12854;BMP180;6495;51.808;7.478;2024-03-02T09:05:28;99729.00;;;11.00
12854;BMP180;6495;51.808;7.478;2024-03-02T09:07:57;99731.00;;;11.10
12854;BMP180;6495;51.808;7.478;2024-03-02T09:10:26;99738.00;;;11.10
12854;BMP180;6495;51.808;7.478;2024-03-02T09:12:55;99737.00;;;11.20
12854;BMP180;6495;51.808;7.478;2024-03-02T09:15:23;99747.00;;;11.30
12854;BMP180;6495;51.808;7.478;2024-03-02T09:17:51;99736.00;;;11.50
12854;BMP180;6495;51.808;7.478;2024-03-02T09:20:20;99737.00;;;11.60
12854;BMP180;6495;51.808;7.478;2024-03-02T09:22:48;99744.00;;;11.60
12854;BMP180;6495;51.808;7.478;2024-03-02T09:25:16;99739.00;;;11.70
12854;BMP180;6495;51.808;7.478;2024-03-02T09:27:46;99748.00;;;11.80
12854;BMP180;6495;51.808;7.478;2024-03-02T09:30:14;99742.00;;;11.90
12854;BMP180;6495;51.808;7.478;2024-03-02T09:32:43;99740.00;;;12.00
12854;BMP180;6495;51.808;7.478;2024-03-02T09:35:13;99744.00;;;12.10
12854;BMP180;6495;51.808;7.478;2024-03-02T09:37:42;99735.00;;;12.20
12854;BMP180;6495;51.808;7.478;2024-03-02T09:40:11;99727.00;;;12.30
12854;BMP180;6495;51.808;7.478;2024-03-02T09:42:40;99736.00;;;12.40
12854;BMP180;6495;51.808;7.478;2024-03-02T09:45:10;99736.00;;;12.40
12854;BMP180;6495;51.808;7.478;2024-03-02T09:47:39;99740.00;;;12.40
12854;BMP180;6495;51.808;7.478;2024-03-02T09:50:08;99740.00;;;12.50
12854;BMP180;6495;51.808;7.478;2024-03-02T09:57:54;99756.00;;;12.80
12854;BMP180;6495;51.808;7.478;2024-03-02T10:05:11;99741.00;;;13.10
12854;BMP180;6495;51.808;7.478;2024-03-02T10:07:40;99743.00;;;13.20
12854;BMP180;6495;51.808;7.478;2024-03-02T10:10:15;99741.00;;;13.20
12854;BMP180;6495;51.808;7.478;2024-03-02T10:12:45;99745.00;;;13.20
12854;BMP180;6495;51.808;7.478;2024-03-02T10:15:23;99747.00;;;13.20
12854;BMP180;6495;51.808;7.478;2024-03-02T10:17:52;99731.00;;;13.30
12854;BMP180;6495;51.808;7.478;2024-03-02T10:20:26;99728.00;;;13.20
12854;BMP180;6495;51.808;7.478;2024-03-02T10:23:09;99731.00;;;13.30
12854;BMP180;6495;51.808;7.478;2024-03-02T10:25:49;99717.00;;;13.30
12854;BMP180;6495;51.808;7.478;2024-03-02T13:03:52;99664.00;;;15.90
12854;BMP180;6495;51.808;7.478;2024-03-02T13:13:51;99652.00;;;15.70
12854;BMP180;6495;51.808;7.478;2024-03-02T13:16:49;99656.00;;;15.60
12854;BMP180;6495;51.808;7.478;2024-03-02T13:19:26;99648.00;;;15.40
12854;BMP180;6495;51.808;7.478;2024-03-02T13:23:22;99650.00;;;15.40
12854;BMP180;6495;51.808;7.478;2024-03-02T13:30:18;99642.00;;;15.20
12854;BMP180;6495;51.808;7.478;2024-03-02T13:33:10;99636.00;;;15.10
12854;BMP180;6495;51.808;7.478;2024-03-02T13:36:16;99642.00;;;15.00
12854;BMP180;6495;51.808;7.478;2024-03-02T13:43:37;99643.00;;;15.00
12854;BMP180;6495;51.808;7.478;2024-03-02T13:47:29;99630.00;;;15.00
12854;BMP180;6495;51.808;7.478;2024-03-02T14:04:17;99611.00;;;14.90
12854;BMP180;6495;51.808;7.478;2024-03-02T14:07:56;99616.00;;;14.90
12854;BMP180;6495;51.808;7.478;2024-03-02T14:12:12;99627.00;;;14.80
12854;BMP180;6495;51.808;7.478;2024-03-02T14:20:18;99624.00;;;14.60
12854;BMP180;6495;51.808;7.478;2024-03-02T14:24:15;99627.00;;;14.60
12854;BMP180;6495;51.808;7.478;2024-03-02T14:27:13;99616.00;;;14.60
12854;BMP180;6495;51.808;7.478;2024-03-02T14:34:20;99620.00;;;14.50
12854;BMP180;6495;51.808;7.478;2024-03-02T14:37:21;99622.00;;;14.50
12854;BMP180;6495;51.808;7.478;2024-03-02T14:40:38;99614.00;;;14.50
12854;BMP180;6495;51.808;7.478;2024-03-02T14:43:44;99624.00;;;14.50
12854;BMP180;6495;51.808;7.478;2024-03-02T14:49:53;99611.00;;;14.40
12854;BMP180;6495;51.808;7.478;2024-03-02T15:00:35;99613.00;;;14.40
12854;BMP180;6495;51.808;7.478;2024-03-02T15:08:08;99611.00;;;14.30
12854;BMP180;6495;51.808;7.478;2024-03-02T15:11:58;99606.00;;;14.30
12854;BMP180;6495;51.808;7.478;2024-03-02T15:15:06;99600.00;;;14.30
12854;BMP180;6495;51.808;7.478;2024-03-02T15:18:28;99607.00;;;14.20
12854;BMP180;6495;51.808;7.478;2024-03-02T15:21:44;99604.00;;;14.20
12854;BMP180;6495;51.808;7.478;2024-03-02T15:34:31;99593.00;;;14.10
12854;BMP180;6495;51.808;7.478;2024-03-02T15:38:01;99595.00;;;14.10
12854;BMP180;6495;51.808;7.478;2024-03-02T15:44:59;99586.00;;;14.00
12854;BMP180;6495;51.808;7.478;2024-03-02T15:48:17;99581.00;;;14.00
12854;BMP180;6495;51.808;7.478;2024-03-02T15:52:10;99601.00;;;14.00
12854;BMP180;6495;51.808;7.478;2024-03-02T16:00:08;99580.00;;;13.90
12854;BMP180;6495;51.808;7.478;2024-03-02T16:03:48;99596.00;;;13.90
12854;BMP180;6495;51.808;7.478;2024-03-02T16:07:01;99588.00;;;13.90
12854;BMP180;6495;51.808;7.478;2024-03-02T16:11:01;99585.00;;;13.90
12854;BMP180;6495;51.808;7.478;2024-03-02T16:14:50;99586.00;;;13.80
12854;BMP180;6495;51.808;7.478;2024-03-02T16:17:49;99596.00;;;13.80
12854;BMP180;6495;51.808;7.478;2024-03-02T16:20:46;99587.00;;;13.80
12854;BMP180;6495;51.808;7.478;2024-03-02T16:24:38;99587.00;;;13.80
12854;BMP180;6495;51.808;7.478;2024-03-02T16:27:10;99588.00;;;13.80
12854;BMP180;6495;51.808;7.478;2024-03-02T16:29:46;99594.00;;;13.70
12854;BMP180;6495;51.808;7.478;2024-03-02T16:32:23;99589.00;;;13.70
12854;BMP180;6495;51.808;7.478;2024-03-02T16:35:04;99579.00;;;13.70
12854;BMP180;6495;51.808;7.478;2024-03-02T16:37:43;99587.00;;;13.60
12854;BMP180;6495;51.808;7.478;2024-03-02T16:40:26;99589.00;;;13.60
12854;BMP180;6495;51.808;7.478;2024-03-02T16:43:31;99586.00;;;13.60
12854;BMP180;6495;51.808;7.478;2024-03-02T16:46:16;99588.00;;;13.60
12854;BMP180;6495;51.808;7.478;2024-03-02T16:48:47;99590.00;;;13.60
12854;BMP180;6495;51.808;7.478;2024-03-02T16:51:18;99589.00;;;13.60
12854;BMP180;6495;51.808;7.478;2024-03-02T16:53:47;99592.00;;;13.50
12854;BMP180;6495;51.808;7.478;2024-03-02T16:56:17;99582.00;;;13.50
12854;BMP180;6495;51.808;7.478;2024-03-02T16:58:45;99589.00;;;13.50
12854;BMP180;6495;51.808;7.478;2024-03-02T17:01:14;99591.00;;;13.40
12854;BMP180;6495;51.808;7.478;2024-03-02T17:03:42;99595.00;;;13.40
12854;BMP180;6495;51.808;7.478;2024-03-02T17:06:11;99587.00;;;13.30
12854;BMP180;6495;51.808;7.478;2024-03-02T17:09:00;99595.00;;;13.30
12854;BMP180;6495;51.808;7.478;2024-03-02T17:11:46;99599.00;;;13.20
12854;BMP180;6495;51.808;7.478;2024-03-02T17:14:18;99602.00;;;13.10
12854;BMP180;6495;51.808;7.478;2024-03-02T17:16:52;99606.00;;;13.10
12854;BMP180;6495;51.808;7.478;2024-03-02T17:19:21;99615.00;;;13.10
12854;BMP180;6495;51.808;7.478;2024-03-02T17:21:50;99609.00;;;13.10
12854;BMP180;6495;51.808;7.478;2024-03-02T17:24:23;99612.00;;;13.10
12854;BMP180;6495;51.808;7.478;2024-03-02T17:26:53;99613.00;;;13.00
12854;BMP180;6495;51.808;7.478;2024-03-02T17:29:24;99618.00;;;13.00
12854;BMP180;6495;51.808;7.478;2024-03-02T17:32:07;99610.00;;;13.00
12854;BMP180;6495;51.808;7.478;2024-03-02T17:34:58;99616.00;;;12.90
12854;BMP180;6495;51.808;7.478;2024-03-02T17:44:31;99617.00;;;12.70
12854;BMP180;6495;51.808;7.478;2024-03-02T17:47:08;99610.00;;;12.70
12854;BMP180;6495;51.808;7.478;2024-03-02T17:50:08;99618.00;;;12.70
12854;BMP180;6495;51.808;7.478;2024-03-02T17:53:10;99616.00;;;12.60
12854;BMP180;6495;51.808;7.478;2024-03-02T17:56:18;99617.00;;;12.50
12854;BMP180;6495;51.808;7.478;2024-03-02T17:59:05;99615.00;;;12.50
12854;BMP180;6495;51.808;7.478;2024-03-02T18:02:13;99621.00;;;12.50
12854;BMP180;6495;51.808;7.478;2024-03-02T18:04:53;99624.00;;;12.40
12854;BMP180;6495;51.808;7.478;2024-03-02T18:07:34;99625.00;;;12.40
12854;BMP180;6495;51.808;7.478;2024-03-02T18:10:21;99622.00;;;12.30
12854;BMP180;6495;51.808;7.478;2024-03-02T18:12:50;99619.00;;;12.30
12854;BMP180;6495;51.808;7.478;2024-03-02T18:15:24;99626.00;;;12.30
12854;BMP180;6495;51.808;7.478;2024-03-02T18:17:57;99636.00;;;12.30
12854;BMP180;6495;51.808;7.478;2024-03-02T18:20:28;99633.00;;;12.30
12854;BMP180;6495;51.808;7.478;2024-03-02T18:23:06;99636.00;;;12.40
12854;BMP180;6495;51.808;7.478;2024-03-02T18:25:50;99633.00;;;12.40
12854;BMP180;6495;51.808;7.478;2024-03-02T18:28:28;99634.00;;;12.40
12854;BMP180;6495;51.808;7.478;2024-03-02T18:30:58;99635.00;;;12.40
12854;BMP180;6495;51.808;7.478;2024-03-02T18:33:29;99645.00;;;12.40
12854;BMP180;6495;51.808;7.478;2024-03-02T18:35:58;99639.00;;;12.40
12854;BMP180;6495;51.808;7.478;2024-03-02T18:38:26;99636.00;;;12.40
12854;BMP180;6495;51.808;7.478;2024-03-02T18:41:33;99628.00;;;12.30
12854;BMP180;6495;51.808;7.478;2024-03-02T18:49:17;99640.00;;;12.20
12854;BMP180;6495;51.808;7.478;2024-03-02T18:51:55;99633.00;;;12.20
12854;BMP180;6495;51.808;7.478;2024-03-02T18:54:44;99626.00;;;12.10
12854;BMP180;6495;51.808;7.478;2024-03-02T18:57:19;99629.00;;;12.10
12854;BMP180;6495;51.808;7.478;2024-03-02T18:59:52;99630.00;;;12.10
12854;BMP180;6495;51.808;7.478;2024-03-02T19:02:28;99623.00;;;12.10
12854;BMP180;6495;51.808;7.478;2024-03-02T19:05:05;99621.00;;;12.10
12854;BMP180;6495;51.808;7.478;2024-03-02T19:07:40;99624.00;;;12.00
12854;BMP180;6495;51.808;7.478;2024-03-02T19:10:13;99620.00;;;12.00
12854;BMP180;6495;51.808;7.478;2024-03-02T19:12:42;99615.00;;;12.00
12854;BMP180;6495;51.808;7.478;2024-03-02T19:15:14;99615.00;;;12.00
12854;BMP180;6495;51.808;7.478;2024-03-02T19:17:53;99616.00;;;12.00
12854;BMP180;6495;51.808;7.478;2024-03-02T19:20:35;99614.00;;;11.90
12854;BMP180;6495;51.808;7.478;2024-03-02T19:23:08;99613.00;;;11.90
12854;BMP180;6495;51.808;7.478;2024-03-02T19:25:51;99608.00;;;11.90
12854;BMP180;6495;51.808;7.478;2024-03-02T19:28:21;99616.00;;;11.90
12854;BMP180;6495;51.808;7.478;2024-03-02T19:30:55;99612.00;;;11.90
12854;BMP180;6495;51.808;7.478;2024-03-02T19:33:24;99616.00;;;11.90
12854;BMP180;6495;51.808;7.478;2024-03-02T19:35:57;99612.00;;;11.80
12854;BMP180;6495;51.808;7.478;2024-03-02T19:38:26;99617.00;;;11.80
12854;BMP180;6495;51.808;7.478;2024-03-02T19:41:00;99617.00;;;11.80
12854;BMP180;6495;51.808;7.478;2024-03-02T19:43:29;99625.00;;;11.80